Time;durP1;ratioP1;P1;durP2;ratioP2;P2;SDS_P1;SDS_P2;PMS_P1;PMS_P2;Temp;Humidity;BMP_temperature;BMP_pressure;BME280_temperature;BME280_humidity;BME280_pressure;Samples;Min_cycle;Max_cycle;Signal;HPM_P1;HPM_P2
2021/09/26 19:30:33;;;;;;;12.43;8.23;;;20.00;99.90;;;17.81;88.91;101202.72;2553502;30;137016;-40
2021/09/26 19:33:01;;;;;;;;;;;19.10;99.90;;;17.76;88.55;101207.34;2566209;30;136703;-40
2021/09/26 19:35:30;;;;;;;9.93;7.22;;;19.10;99.90;;;17.78;89.20;101216.22;2568526;30;138504;-40
2021/09/26 19:37:58;;;;;;;10.27;8.00;;;19.00;99.90;;;17.72;88.83;101214.44;2569936;30;137188;-40
2021/09/26 19:40:28;;;;;;;10.95;7.35;;;18.90;99.90;;;17.65;88.81;101215.44;2569225;30;138421;-40
2021/09/26 19:42:56;;;;;;;11.73;8.25;;;18.90;99.90;;;17.67;89.59;101216.03;2567521;30;138082;-40
2021/09/26 19:45:28;;;;;;;11.25;8.02;;;18.90;99.90;;;17.63;89.65;101217.63;2570291;30;137553;-40
2021/09/26 19:47:56;;;;;;;9.93;7.72;;;18.90;99.90;;;17.58;89.74;101216.69;2571013;30;137700;-40
2021/09/26 19:50:24;;;;;;;10.15;7.45;;;18.80;99.90;;;17.51;89.80;101214.94;2568933;30;139369;-40
2021/09/26 19:52:52;;;;;;;10.35;7.70;;;18.80;99.90;;;17.45;89.58;101215.94;2570209;30;137318;-40
2021/09/26 19:55:22;;;;;;;12.23;8.20;;;18.70;99.90;;;17.40;89.80;101213.94;2569314;30;138938;-40
2021/09/26 19:57:50;;;;;;;12.43;7.85;;;18.70;99.90;;;17.36;90.66;101217.44;2569138;30;136741;-40
2021/09/26 20:00:22;;;;;;;11.80;7.82;;;18.60;99.90;;;17.29;90.40;101209.34;2569287;30;137344;-40
2021/09/26 20:02:53;;;;;;;10.93;7.85;;;18.60;99.90;;;17.20;90.49;101214.41;2568669;30;136985;-40
2021/09/26 20:05:27;;;;;;;12.85;7.88;;;18.50;99.90;;;17.13;90.76;101212.88;2568060;30;139105;-40
2021/09/26 20:07:55;;;;;;;11.00;7.82;;;18.40;99.90;;;17.05;90.88;101220.47;2567499;30;137109;-40
2021/09/26 20:10:26;;;;;;;10.02;7.68;;;18.40;99.90;;;17.00;90.99;101220.38;2565449;30;138390;-40
2021/09/26 20:12:55;;;;;;;10.05;7.38;;;18.30;99.90;;;16.89;90.92;101207.44;2567594;30;136766;-40
2021/09/26 20:15:32;;;;;;;12.27;8.27;;;18.20;99.90;;;16.87;91.40;101212.38;2570021;30;138507;-41
2021/09/26 20:18:00;;;;;;;10.82;7.93;;;18.20;99.90;;;16.79;91.75;101210.84;2569406;30;137586;-40
2021/09/26 20:20:29;;;;;;;10.10;7.93;;;18.10;99.90;;;16.78;91.86;101218.28;2568644;30;139065;-40
2021/09/26 20:22:57;;;;;;;10.95;7.82;;;18.10;99.90;;;16.73;91.62;101217.31;2568552;30;137263;-40
2021/09/26 20:25:28;;;;;;;10.73;8.23;;;18.00;99.90;;;16.68;92.05;101212.53;2568596;30;137392;-40
2021/09/26 20:27:58;;;;;;;11.88;8.38;;;18.00;99.90;;;16.63;92.25;101223.47;2568054;30;136850;-40
2021/09/26 20:30:28;;;;;;;9.85;7.72;;;17.90;99.90;;;16.57;92.07;101217.00;2570478;30;137559;-40
2021/09/26 20:32:56;;;;;;;12.65;8.07;;;17.90;99.90;;;16.54;92.50;101215.59;2569351;30;138316;-40
2021/09/26 20:35:26;;;;;;;13.52;8.27;;;17.80;99.90;;;16.49;93.10;101218.22;2568073;30;138373;-40
2021/09/26 20:37:54;;;;;;;10.23;7.90;;;17.80;99.90;;;16.46;92.82;101223.38;2567186;30;137982;-40
2021/09/26 20:40:27;;;;;;;10.40;7.68;;;17.80;99.90;;;16.45;92.79;101213.44;2569326;30;137753;-40
2021/09/26 20:42:58;;;;;;;14.20;8.30;;;17.80;99.90;;;16.39;92.59;101215.25;2569122;30;136903;-40
2021/09/26 20:45:31;;;;;;;11.45;8.23;;;17.70;99.90;;;16.33;92.84;101210.72;2570327;30;138173;-40
2021/09/26 20:47:59;;;;;;;11.70;7.82;;;17.70;99.90;;;16.28;93.03;101210.59;2568900;30;137399;-40
2021/09/26 20:50:27;;;;;;;9.75;7.68;;;17.60;99.90;;;16.25;93.46;101209.16;2567165;30;137433;-40
2021/09/26 20:52:55;;;;;;;10.60;8.00;;;17.60;99.90;;;16.20;93.14;101206.31;2567020;30;137394;-40
2021/09/26 20:55:27;;;;;;;11.95;7.90;;;17.50;99.90;;;16.14;93.16;101208.09;2569708;30;138423;-40
2021/09/26 20:57:56;;;;;;;10.30;8.00;;;17.50;99.90;;;16.06;93.60;101205.72;2566988;30;137393;-40
2021/09/26 21:00:24;;;;;;;10.77;8.35;;;17.40;99.90;;;16.00;93.69;101212.19;2569892;30;138222;-40
2021/09/26 21:02:52;;;;;;;12.85;7.88;;;17.40;99.90;;;15.93;93.64;101213.16;2568719;30;137194;-40
2021/09/26 21:05:28;;;;;;;12.00;8.43;;;17.30;99.90;;;15.88;93.62;101215.75;2568397;30;138451;-40
2021/09/26 21:07:56;;;;;;;10.68;7.60;;;17.20;99.90;;;15.83;94.39;101212.84;2572481;30;136922;-40
2021/09/26 21:10:30;;;;;;;11.23;8.20;;;17.20;99.90;;;15.77;94.25;101209.13;2569189;30;138533;-40
2021/09/26 21:13:00;;;;;;;11.73;8.43;;;17.10;99.90;;;15.74;94.20;101209.63;2566673;30;137642;-40
2021/09/26 21:15:34;;;;;;;18.48;8.30;;;17.10;99.90;;;15.69;94.73;101220.50;2567541;30;138301;-40
2021/09/26 21:18:02;;;;;;;13.25;8.35;;;17.00;99.90;;;15.63;94.43;101210.47;2569497;30;136761;-40
2021/09/26 21:20:39;;;;;;;11.57;7.72;;;17.00;99.90;;;15.59;94.58;101212.81;2568975;30;136794;-40
2021/09/26 21:23:07;;;;;;;11.95;8.32;;;16.90;99.90;;;15.54;94.33;101209.97;2570000;30;137525;-40
2021/09/26 21:25:36;;;;;;;10.82;8.35;;;16.90;99.90;;;15.52;94.95;101206.59;2567546;30;138393;-40
2021/09/26 21:28:05;;;;;;;11.25;8.52;;;16.90;99.90;;;15.48;95.43;101194.41;2567939;30;137341;-40
2021/09/26 21:30:34;;;;;;;12.65;8.05;;;16.80;99.90;;;15.42;95.38;101201.69;2568630;30;137288;-40
2021/09/26 21:33:04;;;;;;;11.07;8.20;;;16.80;99.90;;;15.35;94.51;101195.47;2567343;30;137816;-40
2021/09/26 21:35:34;;;;;;;11.70;8.27;;;16.70;99.90;;;15.30;94.87;101198.91;2568596;30;137920;-40
2021/09/26 21:38:05;;;;;;;12.57;8.57;;;16.60;99.90;;;15.26;94.86;101202.38;2569756;30;137099;-40
2021/09/26 21:40:38;;;;;;;12.02;9.10;;;16.60;99.90;;;15.20;94.74;101204.16;2568946;30;137439;-40
2021/09/26 21:43:07;;;;;;;12.13;8.65;;;16.50;99.90;;;15.15;95.63;101212.25;2569290;30;137006;-40
2021/09/26 21:45:36;;;;;;;12.85;9.23;;;16.50;99.90;;;15.12;95.92;101207.22;2569059;30;137013;-42
2021/09/26 21:48:04;;;;;;;13.40;9.27;;;16.50;99.90;;;15.12;96.67;101212.69;2571664;30;136665;-40
2021/09/26 21:50:38;;;;;;;17.23;9.98;;;16.50;99.90;;;15.12;97.89;101210.81;2568674;30;137071;-40
2021/09/26 21:53:06;;;;;;;13.52;9.40;;;16.40;99.90;;;15.13;98.51;101214.41;2568831;30;136962;-40
2021/09/26 21:55:37;;;;;;;15.50;10.55;;;16.40;99.90;;;15.12;99.33;101213.56;2568186;30;138190;-40
2021/09/26 21:58:06;;;;;;;14.35;9.60;;;16.40;99.90;;;15.12;99.35;101207.22;2570376;30;138992;-40
2021/09/26 22:00:47;;;;;;;14.32;9.90;;;16.40;99.90;;;15.12;99.45;101212.69;2567453;30;137321;-40
2021/09/26 22:03:22;;;;;;;15.00;10.93;;;16.40;99.90;;;15.14;100.00;101210.59;2566660;30;136683;-40
2021/09/26 22:05:51;;;;;;;13.52;9.48;;;16.50;99.90;;;15.13;99.63;101215.22;2568815;30;137393;-40
2021/09/26 22:08:20;;;;;;;14.82;10.35;;;16.50;99.90;;;15.12;99.63;101215.44;2568968;30;137592;-40
2021/09/26 22:10:52;;;;;;;14.65;9.20;;;16.50;99.90;;;15.14;100.00;101213.34;2568985;30;138022;-40
2021/09/26 22:13:20;;;;;;;14.15;9.85;;;16.40;99.90;;;15.14;100.00;101211.41;2568909;30;136855;-41
2021/09/26 22:15:49;;;;;;;14.93;10.20;;;16.50;99.90;;;15.14;99.68;101213.34;2568796;30;138395;-40
2021/09/26 22:18:21;;;;;;;12.77;9.82;;;16.50;99.90;;;15.14;99.78;101210.59;2568461;30;137670;-40
2021/09/26 22:21:00;;;;;;;14.32;11.32;;;16.50;99.90;;;15.12;100.00;101207.22;2568651;30;137308;-40
2021/09/26 22:23:46;;;;;;;13.57;10.02;;;16.40;99.90;;;15.15;100.00;101217.75;2569826;30;137401;-40
2021/09/26 22:26:16;;;;;;;14.77;10.20;;;16.50;99.90;;;15.13;99.89;101208.91;2569460;30;139191;-40
2021/09/26 22:28:49;;;;;;;14.65;10.35;;;16.50;99.90;;;15.12;100.00;101207.22;2570246;30;139965;-40
2021/09/26 22:31:18;;;;;;;14.38;10.45;;;16.50;99.90;;;15.12;100.00;101212.69;2568951;30;139304;-40
2021/09/26 22:33:46;;;;;;;14.00;10.85;;;16.50;99.90;;;15.11;100.00;101206.38;2569925;30;137550;-40
2021/09/26 22:36:16;;;;;;;;;;;16.40;99.90;;;15.08;100.00;101199.44;2566926;30;138155;-40
2021/09/26 22:38:44;;;;;;;15.15;9.80;;;16.40;99.90;;;15.06;100.00;101201.59;2565646;30;137122;-40
2021/09/26 22:41:16;;;;;;;13.57;10.27;;;16.40;99.90;;;15.03;100.00;101203.97;2568982;30;137449;-40
2021/09/26 22:43:44;;;;;;;16.48;10.32;;;16.40;99.90;;;15.01;99.80;101195.13;2569619;30;136742;-40
2021/09/26 22:46:13;;;;;;;16.05;10.13;;;16.30;99.90;;;14.97;99.99;101200.25;2570585;30;138171;-40
2021/09/26 22:48:41;;;;;;;15.55;10.25;;;16.30;99.90;;;15.00;100.00;101193.47;2570493;30;138245;-40
2021/09/26 22:51:11;;;;;;;13.80;10.10;;;16.30;99.90;;;14.99;100.00;101194.53;2569800;30;137519;-40
2021/09/26 22:53:40;;;;;;;18.17;10.18;;;16.30;99.90;;;15.01;100.00;101195.94;2567659;30;137227;-40
2021/09/26 22:56:08;;;;;;;11.82;9.30;;;16.30;99.90;;;15.00;100.00;101193.47;2566594;30;138320;-40
2021/09/26 22:58:36;;;;;;;14.02;10.18;;;16.30;99.90;;;14.96;100.00;101182.91;2569053;30;136755;-40
2021/09/26 23:01:17;;;;;;;14.82;9.75;;;16.30;99.90;;;14.94;100.00;101187.78;2569956;30;138108;-40
2021/09/26 23:03:47;;;;;;;12.82;8.93;;;16.30;99.90;;;14.93;99.96;101182.56;2569304;30;136950;-40
2021/09/26 23:06:17;;;;;;;12.48;9.63;;;16.30;99.90;;;14.91;100.00;101191.00;2569471;30;137557;-40
2021/09/26 23:08:45;;;;;;;13.32;9.57;;;16.20;99.90;;;14.90;100.00;101191.25;2566296;30;138820;-41
2021/09/26 23:11:15;;;;;;;14.07;9.27;;;16.20;99.90;;;14.84;99.91;101183.94;2568232;30;136774;-41
2021/09/26 23:13:42;;;;;;;11.82;8.45;;;16.20;99.90;;;14.75;99.68;101187.00;2569546;30;136695;-40
2021/09/26 23:16:11;;;;;;;13.70;9.27;;;16.10;99.90;;;14.73;99.68;101183.66;2568021;30;138605;-40
2021/09/26 23:18:40;;;;;;;13.30;9.38;;;16.10;99.90;;;14.69;99.80;101182.41;2568044;30;138570;-41
2021/09/26 23:21:08;;;;;;;12.30;8.70;;;16.10;99.90;;;14.67;100.00;101177.16;2569530;30;137086;-40
2021/09/26 23:23:40;;;;;;;11.93;9.10;;;16.00;99.90;;;14.65;100.00;101186.69;2571534;30;137430;-40
2021/09/26 23:26:12;;;;;;;12.25;9.00;;;16.00;99.90;;;14.66;100.00;101182.88;2568771;30;138223;-40
2021/09/26 23:28:41;;;;;;;13.05;9.05;;;16.00;99.90;;;14.63;100.00;101194.34;2569324;30;136782;-40
2021/09/26 23:31:10;;;;;;;12.43;8.93;;;16.00;99.90;;;14.58;100.00;101189.53;2568984;30;138441;-40
2021/09/26 23:33:39;;;;;;;11.73;8.18;;;16.00;99.90;;;14.56;100.00;101179.81;2568348;30;137848;-42
2021/09/26 23:36:07;;;;;;;13.02;8.95;;;15.90;99.90;;;14.53;99.97;101173.72;2567658;30;139307;-40
2021/09/26 23:38:35;;;;;;;11.75;8.27;;;15.90;99.90;;;14.50;100.00;101179.69;2568464;30;136686;-40
2021/09/26 23:41:14;;;;;;;11.65;8.20;;;15.90;99.90;;;14.47;100.00;101182.06;2570031;30;138186;-40
2021/09/26 23:43:52;;;;;;;10.45;7.47;;;15.80;99.90;;;14.47;100.00;101179.31;2570211;30;138559;-40
2021/09/26 23:46:28;;;;;;;13.60;9.37;;;15.80;99.90;;;14.44;100.00;101180.63;2568566;30;138408;-40
2021/09/26 23:48:58;;;;;;;11.15;8.10;;;15.80;99.90;;;14.44;100.00;101180.63;2569648;30;137323;-40
2021/09/26 23:51:27;;;;;;;11.52;8.20;;;15.80;99.90;;;14.43;100.00;101183.56;2565886;30;138388;-40
2021/09/26 23:53:59;;;;;;;12.40;9.20;;;15.80;99.90;;;14.39;100.00;101185.97;2570667;30;137656;-40
2021/09/26 23:56:26;;;;;;;12.50;8.45;;;15.70;99.90;;;14.36;100.00;101192.72;2570076;30;137431;-40
2021/09/26 23:58:54;;;;;;;;;;;15.70;99.90;;;14.31;100.00;101192.59;2568204;30;137244;-40
